createdAt,value
2023-03-26T00:14:26.448Z,7.9
2023-03-26T00:29:26.449Z,7.9
2023-03-26T00:44:26.367Z,7.9
2023-03-26T00:59:26.420Z,7.9
2023-03-26T01:14:26.424Z,7.9
2023-03-26T01:29:26.386Z,8.1
2023-03-26T01:44:26.436Z,8.2
2023-03-26T01:59:26.410Z,8.1
2023-03-26T02:14:26.412Z,8
2023-03-26T02:29:26.451Z,7.9
2023-03-26T02:44:26.451Z,7.8
2023-03-26T02:59:26.439Z,7.8
2023-03-26T03:14:26.404Z,7.7
2023-03-26T03:29:26.468Z,7.6
2023-03-26T03:44:26.420Z,7.4
2023-03-26T03:59:26.421Z,7.2
2023-03-26T04:14:26.407Z,7.2
2023-03-26T04:29:26.439Z,7.3
2023-03-26T04:44:26.395Z,7.3
2023-03-26T04:59:26.393Z,7.3
2023-03-26T05:14:26.409Z,7.2
2023-03-26T05:29:26.423Z,7.1
2023-03-26T05:44:26.391Z,7.1
2023-03-26T05:59:26.428Z,7.1
2023-03-26T06:14:26.326Z,7.2
2023-03-26T06:29:26.389Z,7.1
2023-03-26T06:44:26.435Z,7.1
2023-03-26T06:59:26.418Z,7.1
2023-03-26T07:14:26.446Z,6.9
2023-03-26T07:29:26.420Z,6.9
2023-03-26T07:44:26.434Z,6.9
2023-03-26T07:59:26.410Z,6.8
2023-03-26T08:14:26.410Z,6.7
2023-03-26T08:29:26.445Z,6.7
2023-03-26T08:44:26.450Z,6.7
2023-03-26T08:59:26.402Z,6.8
2023-03-26T09:14:26.420Z,6.9
2023-03-26T09:29:26.418Z,7.1
2023-03-26T09:44:26.431Z,7.2
2023-03-26T09:59:26.436Z,7.3
2023-03-26T10:14:26.419Z,7.4
2023-03-26T10:29:26.435Z,7.4
2023-03-26T10:44:26.380Z,7.6
2023-03-26T10:59:27.036Z,7.3
2023-03-26T11:14:34.103Z,8.6
2023-03-26T11:29:30.803Z,8.6
2023-03-26T11:44:26.437Z,8.9
2023-03-26T11:59:26.455Z,9
2023-03-26T12:14:26.414Z,9
2023-03-26T12:29:26.424Z,9.4
2023-03-26T12:44:52.538Z,9.3
2023-03-26T12:59:26.398Z,9.4
2023-03-26T13:14:26.420Z,9.4
2023-03-26T13:29:26.433Z,8.9
2023-03-26T13:44:26.412Z,8.4
2023-03-26T13:59:26.441Z,8.2
2023-03-26T14:14:26.426Z,7.9
2023-03-26T14:29:26.390Z,7.7
2023-03-26T14:44:26.421Z,7.3
2023-03-26T14:59:26.445Z,7.6
2023-03-26T15:14:26.451Z,7.6
2023-03-26T15:29:26.433Z,7.5
2023-03-26T15:44:26.400Z,7.6
2023-03-26T15:59:26.572Z,7.5
2023-03-26T16:14:26.426Z,7.3
2023-03-26T16:29:26.448Z,7.4
2023-03-26T16:44:26.440Z,7.1
2023-03-26T16:59:26.395Z,6.8
2023-03-26T17:14:26.419Z,6.6
2023-03-26T17:29:26.428Z,6.4
2023-03-26T17:44:26.423Z,6.3
2023-03-26T17:59:26.436Z,6
2023-03-26T18:14:26.409Z,5.8
2023-03-26T18:29:26.411Z,5.7
2023-03-26T18:44:26.436Z,5.7
2023-03-26T18:59:26.334Z,5.8
2023-03-26T19:14:26.420Z,5.8
2023-03-26T19:29:26.416Z,5.6
2023-03-26T19:44:26.473Z,5.4
2023-03-26T19:59:26.426Z,5.3
2023-03-26T20:14:26.776Z,5.2
2023-03-26T20:29:26.411Z,5.1
2023-03-26T20:44:26.402Z,4.9
2023-03-26T20:59:26.986Z,4.8
2023-03-26T21:14:26.409Z,4.6
2023-03-26T21:29:26.402Z,4.4
2023-03-26T21:44:26.407Z,4.3
2023-03-26T21:59:26.429Z,4.2
2023-03-26T22:14:26.425Z,3.9
2023-03-26T22:29:26.428Z,3.8
2023-03-26T22:44:26.425Z,3.8
2023-03-26T22:59:26.453Z,3.6
2023-03-26T23:14:26.428Z,3.4
2023-03-26T23:29:26.382Z,3.2
2023-03-26T23:44:26.391Z,3
2023-03-26T23:59:26.361Z,2.7
